Time;durP1;ratioP1;P1;durP2;ratioP2;P2;SDS_P1;SDS_P2;PMS_P1;PMS_P2;Temp;Humidity;BMP_temperature;BMP_pressure;BME280_temperature;BME280_humidity;BME280_pressure;Samples;Min_cycle;Max_cycle;Signal;HPM_P1;HPM_P2
2022/08/14 00:00:24;;;;;;;;;;;21.20;99.90;;;;;;5077434;28;20012;-76
2022/08/14 00:02:50;;;;;;;;;;;21.30;99.90;;;;;;5078930;28;19912;-76
2022/08/14 00:05:17;;;;;;;;;;;21.40;99.90;;;;;;5078479;28;20023;-75
2022/08/14 00:07:43;;;;;;;;;;;21.40;99.90;;;;;;5079580;28;19951;-74
2022/08/14 00:10:10;;;;;;;;;;;21.50;99.90;;;;;;5077905;28;20404;-75
2022/08/14 00:12:37;;;;;;;;;;;21.40;99.90;;;;;;5077522;28;20369;-77
2022/08/14 00:15:07;;;;;;;;;;;21.50;99.90;;;;;;5081856;28;19922;-76
2022/08/14 00:17:33;;;;;;;;;;;21.60;99.90;;;;;;5079218;28;20381;-74
2022/08/14 00:19:59;;;;;;;;;;;21.70;99.90;;;;;;5078441;28;19912;-74
2022/08/14 00:22:24;;;;;;;;;;;21.80;99.90;;;;;;5079275;28;19932;-75
2022/08/14 00:24:50;;;;;;;;;;;21.70;99.90;;;;;;5059845;28;19916;-76
2022/08/14 00:27:15;;;;;;;;;;;21.70;99.90;;;;;;5083387;28;19980;-75
2022/08/14 00:29:41;;;;;;;;;;;21.70;99.90;;;;;;5079410;28;20191;-76
2022/08/14 00:32:07;;;;;;;;;;;21.70;99.90;;;;;;5079268;28;19912;-75
2022/08/14 00:34:33;;;;;;;;;;;21.70;99.90;;;;;;5078562;28;19951;-75
2022/08/14 00:36:58;;;;;;;;;;;21.50;99.90;;;;;;5080609;28;20011;-75
2022/08/14 00:39:24;;;;;;;;;;;21.40;99.90;;;;;;5061248;28;19995;-75
2022/08/14 00:41:49;;;;;;;;;;;21.40;99.90;;;;;;5078047;28;19949;-77
2022/08/14 00:44:15;;;;;;;;;;;21.50;99.90;;;;;;5078575;28;20309;-76
2022/08/14 00:46:41;;;;;;;;;;;21.50;99.90;;;;;;5065046;28;20054;-75
2022/08/14 00:49:07;;;;;;;;;;;21.40;99.90;;;;;;5079328;28;19912;-74
2022/08/14 00:51:33;;;;;;;;;;;21.20;99.90;;;;;;5081995;28;19945;-75
2022/08/14 00:54:01;;;;;;;;;;;21.00;99.90;;;;;;5085209;28;19959;-76
2022/08/14 00:56:27;;;;;;;;;;;20.90;99.90;;;;;;5078802;28;20015;-75
2022/08/14 00:58:54;;;;;;;;;;;20.80;99.90;;;;;;5079599;28;19912;-75
2022/08/14 01:01:20;;;;;;;;;;;20.80;99.90;;;;;;5078129;28;19927;-76
2022/08/14 01:03:46;;;;;;;;;;;20.80;99.90;;;;;;5078817;28;19920;-75
2022/08/14 01:06:14;;;;;;;;;;;20.90;99.90;;;;;;5077159;28;19924;-76
2022/08/14 01:08:42;;;;;;;;;;;21.00;99.90;;;;;;5080047;28;19912;-76
2022/08/14 01:11:09;;;;;;;;;;;21.10;99.90;;;;;;5091483;28;19919;-77
2022/08/14 01:13:36;;;;;;;;;;;21.10;99.90;;;;;;5093443;28;19978;-75
2022/08/14 01:16:03;;;;;;;;;;;21.20;99.90;;;;;;5094125;28;20341;-76
2022/08/14 01:21:16;;;;;;;;;;;21.20;99.90;;;;;;5094862;28;19978;-75
2022/08/14 01:23:43;;;;;;;;;;;21.30;99.90;;;;;;5095904;28;19916;-76
2022/08/14 01:26:10;;;;;;;;;;;21.20;99.90;;;;;;5079749;28;20833;-75
2022/08/14 01:28:37;;;;;;;;;;;21.30;99.90;;;;;;5078044;28;19912;-76
2022/08/14 01:31:07;;;;;;;;;;;21.20;99.90;;;;;;5078942;28;20034;-74
2022/08/14 01:33:34;;;;;;;;;;;21.20;99.90;;;;;;5076761;28;19916;-76
2022/08/14 01:35:59;;;;;;;;;;;21.10;99.90;;;;;;5076996;28;19921;-76
2022/08/14 01:38:33;;;;;;;;;;;21.00;99.90;;;;;;5080245;28;19943;-75
2022/08/14 01:41:00;;;;;;;;;;;20.90;99.90;;;;;;5063727;28;19963;-76
2022/08/14 01:43:29;;;;;;;;;;;21.00;99.90;;;;;;5060122;28;19916;-75
2022/08/14 01:45:56;;;;;;;;;;;21.10;99.90;;;;;;5079059;28;20329;-74
2022/08/14 01:48:22;;;;;;;;;;;21.10;99.90;;;;;;5078108;28;19912;-75
2022/08/14 01:50:48;;;;;;;;;;;21.10;99.90;;;;;;5080954;28;19924;-74
2022/08/14 01:53:14;;;;;;;;;;;21.10;99.90;;;;;;5077777;28;19920;-76
2022/08/14 01:55:39;;;;;;;;;;;21.10;99.90;;;;;;5076547;28;19920;-75
2022/08/14 01:58:05;;;;;;;;;;;21.00;99.90;;;;;;5077578;28;19972;-75
2022/08/14 02:00:33;;;;;;;;;;;21.10;99.90;;;;;;5080424;28;19912;-76
2022/08/14 02:02:59;;;;;;;;;;;21.10;99.90;;;;;;5050745;28;19952;-75
2022/08/14 02:05:28;;;;;;;;;;;21.10;99.90;;;;;;5074990;28;20391;-75
2022/08/14 02:07:54;;;;;;;;;;;21.00;99.90;;;;;;5055612;28;20358;-77
2022/08/14 02:10:20;;;;;;;;;;;21.10;99.90;;;;;;5060349;28;20290;-76
2022/08/14 02:12:46;;;;;;;;;;;21.00;99.90;;;;;;5076678;28;19916;-74
2022/08/14 02:15:11;;;;;;;;;;;21.00;99.90;;;;;;5077413;28;19959;-75
2022/08/14 02:17:37;;;;;;;;;;;21.00;99.90;;;;;;5076363;28;19927;-76
2022/08/14 02:20:03;;;;;;;;;;;20.90;99.90;;;;;;5078676;28;20377;-74
2022/08/14 02:22:29;;;;;;;;;;;20.80;99.90;;;;;;5077450;28;19920;-75
2022/08/14 02:24:55;;;;;;;;;;;20.70;99.90;;;;;;5077416;28;20144;-75
2022/08/14 02:27:21;;;;;;;;;;;20.70;99.90;;;;;;5077538;28;19917;-74
2022/08/14 02:29:46;;;;;;;;;;;20.70;99.90;;;;;;5077626;28;20211;-75
2022/08/14 02:32:12;;;;;;;;;;;21.00;99.90;;;;;;5075470;28;20003;-76
2022/08/14 02:34:38;;;;;;;;;;;21.00;99.90;;;;;;5076848;28;19917;-75
2022/08/14 02:37:06;;;;;;;;;;;21.00;99.90;;;;;;5075366;28;19970;-75
2022/08/14 02:39:33;;;;;;;;;;;20.80;99.90;;;;;;5075825;28;19919;-76
2022/08/14 02:41:58;;;;;;;;;;;20.90;99.90;;;;;;5077570;28;19916;-75
2022/08/14 02:44:25;;;;;;;;;;;21.00;99.90;;;;;;5074612;28;19938;-75
2022/08/14 02:46:54;;;;;;;;;;;21.00;99.90;;;;;;5078148;28;19919;-75
2022/08/14 02:49:25;;;;;;;;;;;21.00;99.90;;;;;;5074251;28;19916;-74
2022/08/14 02:51:51;;;;;;;;;;;20.90;99.90;;;;;;5076148;28;19916;-75
2022/08/14 02:54:17;;;;;;;;;;;21.10;99.90;;;;;;5075075;28;19974;-76
2022/08/14 02:56:42;;;;;;;;;;;21.20;99.90;;;;;;5058221;28;21142;-76
2022/08/14 02:59:08;;;;;;;;;;;21.20;99.90;;;;;;5077913;28;19919;-77
2022/08/14 03:01:34;;;;;;;;;;;21.00;99.90;;;;;;5075495;28;20103;-76
2022/08/14 03:04:00;;;;;;;;;;;20.90;99.90;;;;;;5076759;28;19917;-76
2022/08/14 03:06:26;;;;;;;;;;;20.90;99.90;;;;;;5075956;28;19974;-75
2022/08/14 03:08:53;;;;;;;;;;;20.80;99.90;;;;;;5074501;28;19924;-75
2022/08/14 03:11:20;;;;;;;;;;;20.80;99.90;;;;;;5077322;28;19920;-75
2022/08/14 03:13:48;;;;;;;;;;;20.70;99.90;;;;;;5075457;28;19927;-76
2022/08/14 03:16:14;;;;;;;;;;;20.60;99.90;;;;;;5061715;28;19974;-76
2022/08/14 03:18:41;;;;;;;;;;;20.50;99.90;;;;;;5075929;28;19912;-76
2022/08/14 03:21:08;;;;;;;;;;;20.30;99.90;;;;;;5076038;28;19924;-75
2022/08/14 03:23:35;;;;;;;;;;;20.20;99.90;;;;;;5073733;28;19932;-75
2022/08/14 03:26:02;;;;;;;;;;;20.30;99.90;;;;;;5081018;28;19996;-74
2022/08/14 03:28:28;;;;;;;;;;;20.40;99.90;;;;;;5079108;28;19974;-75
2022/08/14 03:30:54;;;;;;;;;;;20.40;99.90;;;;;;5080188;28;20411;-76
2022/08/14 03:33:20;;;;;;;;;;;20.40;99.90;;;;;;5080064;28;19916;-75
2022/08/14 03:35:45;;;;;;;;;;;20.50;99.90;;;;;;5080359;28;19922;-75
2022/08/14 03:38:11;;;;;;;;;;;20.50;99.90;;;;;;5078672;28;19916;-74
2022/08/14 03:40:38;;;;;;;;;;;20.40;99.90;;;;;;5081050;28;20281;-75
2022/08/14 03:43:07;;;;;;;;;;;20.20;99.90;;;;;;5079325;28;19931;-75
2022/08/14 03:45:34;;;;;;;;;;;20.20;99.90;;;;;;5080311;28;19912;-74
2022/08/14 03:48:02;;;;;;;;;;;20.20;99.90;;;;;;5080583;28;19961;-76
2022/08/14 03:50:28;;;;;;;;;;;20.40;99.90;;;;;;5081012;28;20377;-75
2022/08/14 03:52:54;;;;;;;;;;;20.60;99.90;;;;;;5079824;28;19919;-74
2022/08/14 03:55:19;;;;;;;;;;;20.50;99.90;;;;;;5083653;28;19919;-75
2022/08/14 03:57:46;;;;;;;;;;;20.60;99.90;;;;;;5108515;28;21227;-76
2022/08/14 04:00:12;;;;;;;;;;;20.50;99.90;;;;;;5068666;28;19912;-76
2022/08/14 04:02:39;;;;;;;;;;;20.40;99.90;;;;;;5080918;28;19919;-75
2022/08/14 04:05:06;;;;;;;;;;;20.20;99.90;;;;;;5079423;28;20621;-75
2022/08/14 04:07:32;;;;;;;;;;;20.20;99.90;;;;;;5058941;28;19944;-76
2022/08/14 04:09:57;;;;;;;;;;;20.00;99.90;;;;;;5078214;28;19923;-76
2022/08/14 04:12:23;;;;;;;;;;;20.10;99.90;;;;;;5078757;28;19921;-74
2022/08/14 04:14:51;;;;;;;;;;;20.10;99.90;;;;;;5078495;28;19959;-76
2022/08/14 04:17:17;;;;;;;;;;;20.00;99.90;;;;;;5079627;28;19932;-75
2022/08/14 04:19:43;;;;;;;;;;;20.20;99.90;;;;;;5082105;28;19920;-75
2022/08/14 04:22:09;;;;;;;;;;;20.30;99.90;;;;;;5078517;28;19924;-76
2022/08/14 04:24:35;;;;;;;;;;;20.30;99.90;;;;;;5080331;28;19920;-76
2022/08/14 04:27:01;;;;;;;;;;;20.30;99.90;;;;;;5077754;28;19912;-75
2022/08/14 04:29:26;;;;;;;;;;;20.40;99.90;;;;;;5077705;28;20045;-74
2022/08/14 04:31:52;;;;;;;;;;;20.40;99.90;;;;;;5079272;28;20300;-74
2022/08/14 04:34:18;;;;;;;;;;;20.50;99.90;;;;;;5078810;28;19916;-75
2022/08/14 04:44:57;;;;;;;;;;;20.50;99.90;;;;;;5077943;28;19920;-75
2022/08/14 04:50:06;;;;;;;;;;;20.50;99.90;;;;;;5078815;28;19999;-74
2022/08/14 04:52:32;;;;;;;;;;;20.60;99.90;;;;;;5077756;28;20358;-75
2022/08/14 04:54:58;;;;;;;;;;;20.60;99.90;;;;;;5092375;28;19916;-75
2022/08/14 04:57:24;;;;;;;;;;;20.70;99.90;;;;;;5079405;28;19916;-75
2022/08/14 04:59:51;;;;;;;;;;;20.80;99.90;;;;;;5077474;28;19919;-76
2022/08/14 05:02:17;;;;;;;;;;;20.90;99.90;;;;;;5075644;28;20285;-76
2022/08/14 05:04:42;;;;;;;;;;;21.10;99.90;;;;;;5077417;28;19924;-76
2022/08/14 05:07:08;;;;;;;;;;;21.20;99.90;;;;;;5064187;28;20007;-76
2022/08/14 05:09:33;;;;;;;;;;;21.30;99.90;;;;;;5077552;28;19920;-75
2022/08/14 05:11:59;;;;;;;;;;;21.30;99.90;;;;;;5078056;28;19919;-75
2022/08/14 05:14:26;;;;;;;;;;;21.30;99.90;;;;;;5064510;28;19942;-77
2022/08/14 05:16:52;;;;;;;;;;;21.50;99.90;;;;;;5076199;28;19924;-75
2022/08/14 05:19:18;;;;;;;;;;;21.70;99.90;;;;;;5079210;28;20262;-75
2022/08/14 05:21:43;;;;;;;;;;;21.80;99.90;;;;;;5078883;28;20445;-76
2022/08/14 05:24:11;;;;;;;;;;;21.80;99.90;;;;;;5079551;28;19920;-75
2022/08/14 05:26:43;;;;;;;;;;;21.90;99.90;;;;;;5063826;28;20007;-75
2022/08/14 05:29:09;;;;;;;;;;;21.90;99.90;;;;;;5079469;28;19917;-76
2022/08/14 05:31:38;;;;;;;;;;;21.80;99.90;;;;;;5079132;28;19995;-75
2022/08/14 05:34:05;;;;;;;;;;;21.80;99.90;;;;;;5076412;28;19962;-76
2022/08/14 05:36:32;;;;;;;;;;;21.70;99.90;;;;;;5078083;28;19931;-76
2022/08/14 05:38:58;;;;;;;;;;;21.70;99.90;;;;;;5084004;28;20226;-76
2022/08/14 05:41:23;;;;;;;;;;;22.00;99.90;;;;;;5087828;28;19912;-75
2022/08/14 05:43:49;;;;;;;;;;;22.20;99.90;;;;;;5090058;28;20378;-75
2022/08/14 05:46:21;;;;;;;;;;;22.30;99.90;;;;;;5078839;28;19912;-77
2022/08/14 05:48:48;;;;;;;;;;;22.50;99.90;;;;;;5079439;28;20072;-75
2022/08/14 05:51:14;;;;;;;;;;;22.60;99.90;;;;;;5077246;28;20392;-75
2022/08/14 05:53:39;;;;;;;;;;;22.70;99.90;;;;;;5085303;28;20079;-76
2022/08/14 05:56:05;;;;;;;;;;;22.60;99.90;;;;;;5063272;28;20692;-76
2022/08/14 05:58:31;;;;;;;;;;;22.50;99.90;;;;;;5079021;28;19919;-76
2022/08/14 06:00:56;;;;;;;;;;;22.60;99.90;;;;;;5075864;28;19963;-75
2022/08/14 06:03:22;;;;;;;;;;;22.70;99.90;;;;;;5089961;28;19960;-75
2022/08/14 06:05:52;;;;;;;;;;;22.80;99.90;;;;;;5099069;28;19941;-75
2022/08/14 06:08:28;;;;;;;;;;;22.90;99.90;;;;;;5095463;28;19934;-77
2022/08/14 06:10:55;;;;;;;;;;;23.00;99.90;;;;;;5091718;28;20076;-76
2022/08/14 06:13:21;;;;;;;;;;;23.20;99.90;;;;;;5098274;28;20014;-76
2022/08/14 06:15:47;;;;;;;;;;;23.30;99.90;;;;;;5090011;28;19912;-77
2022/08/14 06:18:16;;;;;;;;;;;23.40;99.90;;;;;;5091656;28;19915;-76
2022/08/14 06:20:42;;;;;;;;;;;23.50;99.90;;;;;;5098082;28;19916;-76
2022/08/14 06:23:07;;;;;;;;;;;23.50;99.90;;;;;;5075281;28;19939;-76
2022/08/14 06:25:33;;;;;;;;;;;23.60;99.90;;;;;;5089153;28;20315;-75
2022/08/14 06:27:59;;;;;;;;;;;23.70;99.90;;;;;;5098071;28;20014;-78
2022/08/14 06:30:29;;;;;;;;;;;23.70;99.90;;;;;;5092569;28;19912;-76
2022/08/14 06:32:54;;;;;;;;;;;23.80;99.90;;;;;;5095100;28;19913;-77
2022/08/14 06:35:21;;;;;;;;;;;23.80;99.90;;;;;;5094091;28;19915;-76
2022/08/14 06:37:57;;;;;;;;;;;23.80;99.90;;;;;;5105143;28;19916;-77
2022/08/14 06:40:29;;;;;;;;;;;23.80;99.90;;;;;;5091483;28;19913;-76
2022/08/14 06:42:55;;;;;;;;;;;23.70;99.90;;;;;;5087498;28;20422;-67
2022/08/14 06:45:21;;;;;;;;;;;23.70;99.90;;;;;;5075820;28;19913;-68
2022/08/14 06:47:46;;;;;;;;;;;23.70;99.90;;;;;;5076376;28;20445;-66
2022/08/14 06:50:14;;;;;;;;;;;23.70;99.90;;;;;;5094193;28;19926;-67
2022/08/14 06:52:40;;;;;;;;;;;23.70;99.90;;;;;;5084420;28;19916;-68
2022/08/14 06:55:06;;;;;;;;;;;23.60;99.90;;;;;;5094182;28;19923;-66
2022/08/14 06:57:37;;;;;;;;;;;23.50;99.90;;;;;;5090642;28;19966;-67
2022/08/14 07:00:10;;;;;;;;;;;23.60;99.90;;;;;;5086389;28;19916;-66
2022/08/14 07:08:04;;;;;;;;;;;23.40;99.90;;;;;;5087762;28;19982;-70
2022/08/14 07:10:30;;;;;;;;;;;23.40;99.90;;;;;;5064105;28;19912;-70
2022/08/14 07:12:56;;;;;;;;;;;23.50;99.90;;;;;;5095337;28;19923;-67
2022/08/14 07:15:21;;;;;;;;;;;23.60;99.90;;;;;;5085108;28;19924;-68
2022/08/14 07:17:48;;;;;;;;;;;23.60;99.90;;;;;;5081809;28;19959;-68
2022/08/14 07:20:14;;;;;;;;;;;23.70;99.90;;;;;;5086472;28;20035;-67
2022/08/14 07:22:39;;;;;;;;;;;23.70;99.90;;;;;;5091505;28;19942;-67
2022/08/14 07:25:05;;;;;;;;;;;23.80;99.90;;;;;;5090722;28;19912;-68
2022/08/14 07:27:31;;;;;;;;;;;23.90;99.90;;;;;;5088128;28;19919;-67
2022/08/14 07:29:56;;;;;;;;;;;24.10;99.90;;;;;;5101989;28;20411;-67
2022/08/14 07:32:22;;;;;;;;;;;24.20;99.90;;;;;;5094656;28;19915;-67
2022/08/14 07:34:48;;;;;;;;;;;24.20;99.90;;;;;;5110248;28;19999;-68
2022/08/14 07:37:13;;;;;;;;;;;24.40;99.90;;;;;;5101367;28;19981;-67
2022/08/14 07:39:39;;;;;;;;;;;24.60;99.90;;;;;;5110217;28;20211;-66
2022/08/14 07:42:05;;;;;;;;;;;24.70;99.90;;;;;;5090976;28;20404;-67
2022/08/14 07:44:30;;;;;;;;;;;24.50;99.90;;;;;;5089429;28;19909;-68
2022/08/14 07:46:56;;;;;;;;;;;24.40;99.90;;;;;;5089427;28;20004;-67
2022/08/14 07:49:21;;;;;;;;;;;24.40;99.90;;;;;;5110000;28;19912;-66
2022/08/14 07:51:47;;;;;;;;;;;24.40;99.90;;;;;;5091515;28;19947;-67
2022/08/14 07:54:13;;;;;;;;;;;24.60;99.90;;;;;;5089021;28;19908;-67
2022/08/14 07:56:40;;;;;;;;;;;24.70;99.90;;;;;;5085327;28;20344;-67
2022/08/14 07:59:05;;;;;;;;;;;24.60;99.90;;;;;;5099590;28;19992;-67
2022/08/14 08:01:32;;;;;;;;;;;24.70;99.90;;;;;;5088852;28;20288;-68
2022/08/14 08:04:01;;;;;;;;;;;24.80;99.90;;;;;;5089583;28;20353;-67
2022/08/14 08:06:27;;;;;;;;;;;24.80;99.90;;;;;;5085716;28;19920;-68
2022/08/14 08:08:54;;;;;;;;;;;24.90;99.90;;;;;;5095021;28;19912;-68
2022/08/14 08:11:21;;;;;;;;;;;24.90;99.90;;;;;;5094798;28;19912;-67
2022/08/14 08:13:48;;;;;;;;;;;25.00;99.90;;;;;;5092961;28;20292;-67
2022/08/14 08:16:15;;;;;;;;;;;24.90;99.90;;;;;;5094787;28;19965;-68
2022/08/14 08:18:40;;;;;;;;;;;25.00;99.90;;;;;;5093384;28;19920;-67
2022/08/14 08:21:07;;;;;;;;;;;25.00;99.90;;;;;;5092864;28;20277;-68
2022/08/14 08:23:32;;;;;;;;;;;25.10;99.90;;;;;;5102053;28;19920;-67
2022/08/14 08:25:58;;;;;;;;;;;25.00;99.90;;;;;;5093174;28;19918;-68
2022/08/14 08:28:26;;;;;;;;;;;25.00;99.90;;;;;;5097463;28;19958;-67
2022/08/14 08:30:56;;;;;;;;;;;24.90;99.90;;;;;;5074169;28;20289;-67
2022/08/14 08:33:23;;;;;;;;;;;24.90;99.90;;;;;;5074252;28;19962;-67
2022/08/14 08:35:49;;;;;;;;;;;25.00;99.90;;;;;;5084780;28;20275;-67
2022/08/14 08:38:16;;;;;;;;;;;24.90;99.90;;;;;;5089337;28;19918;-66
2022/08/14 08:40:47;;;;;;;;;;;25.10;99.90;;;;;;5102799;28;20284;-67
2022/08/14 08:43:16;;;;;;;;;;;25.20;99.90;;;;;;5095145;28;20367;-69
2022/08/14 08:45:42;;;;;;;;;;;25.30;99.90;;;;;;5090322;28;19955;-68
2022/08/14 08:48:08;;;;;;;;;;;25.30;99.90;;;;;;5093357;28;20337;-68
2022/08/14 08:50:35;;;;;;;;;;;25.30;99.90;;;;;;5073235;28;19919;-66
2022/08/14 08:53:02;;;;;;;;;;;25.30;99.90;;;;;;5101711;28;19919;-68
2022/08/14 08:55:32;;;;;;;;;;;25.30;99.90;;;;;;5088996;28;19912;-67
2022/08/14 08:58:08;;;;;;;;;;;25.30;99.90;;;;;;5101911;28;19916;-68
2022/08/14 09:00:36;;;;;;;;;;;25.10;99.90;;;;;;5099177;28;19911;-68
2022/08/14 09:03:02;;;;;;;;;;;25.20;99.90;;;;;;5085280;28;19920;-66
2022/08/14 09:05:28;;;;;;;;;;;25.20;99.90;;;;;;5092380;28;19919;-69
2022/08/14 09:07:54;;;;;;;;;;;25.20;99.90;;;;;;5091185;28;20184;-67
2022/08/14 09:10:19;;;;;;;;;;;25.20;99.90;;;;;;5091628;28;19908;-68
2022/08/14 09:12:45;;;;;;;;;;;25.00;99.90;;;;;;5092814;28;20074;-69
2022/08/14 09:15:11;;;;;;;;;;;24.90;99.90;;;;;;5090315;28;19909;-68
2022/08/14 09:17:37;;;;;;;;;;;24.90;99.90;;;;;;5089747;28;19916;-67
2022/08/14 09:20:03;;;;;;;;;;;25.00;99.90;;;;;;5088130;28;19912;-67
2022/08/14 09:22:29;;;;;;;;;;;25.10;99.90;;;;;;5087267;28;19986;-67
2022/08/14 09:24:55;;;;;;;;;;;25.10;99.90;;;;;;5093908;28;19957;-69
2022/08/14 09:27:21;;;;;;;;;;;25.00;99.90;;;;;;5089079;28;19938;-68
2022/08/14 09:29:46;;;;;;;;;;;25.00;99.90;;;;;;5090219;28;19998;-67
2022/08/14 09:32:15;;;;;;;;;;;24.90;99.90;;;;;;5112498;28;19966;-67
2022/08/14 09:35:00;;;;;;;;;;;25.00;99.90;;;;;;5100035;28;19977;-67
2022/08/14 09:37:38;;;;;;;;;;;25.00;99.90;;;;;;5086495;28;20018;-68
2022/08/14 09:40:13;;;;;;;;;;;24.90;99.90;;;;;;5085466;28;20392;-68
2022/08/14 09:42:42;;;;;;;;;;;25.00;99.90;;;;;;5084382;28;19974;-67
2022/08/14 09:45:43;;;;;;;;;;;25.10;99.90;;;;;;5089480;28;19940;-68
2022/08/14 09:48:15;;;;;;;;;;;25.10;99.90;;;;;;5006055;28;20014;-68
2022/08/14 09:50:46;;;;;;;;;;;25.20;99.90;;;;;;5075331;28;19962;-68
2022/08/14 09:53:14;;;;;;;;;;;25.30;99.90;;;;;;5101322;28;19939;-68
2022/08/14 09:55:39;;;;;;;;;;;25.30;99.90;;;;;;5092875;28;20354;-68
2022/08/14 09:58:13;;;;;;;;;;;25.40;99.90;;;;;;5091614;28;19931;-68
2022/08/14 10:00:41;;;;;;;;;;;25.40;99.90;;;;;;5097868;28;19912;-68
2022/08/14 10:03:08;;;;;;;;;;;25.40;99.90;;;;;;5089595;28;19940;-67
2022/08/14 10:05:34;;;;;;;;;;;25.30;99.90;;;;;;5095231;28;19967;-69
2022/08/14 10:08:00;;;;;;;;;;;25.40;99.90;;;;;;5107189;28;20049;-68
2022/08/14 10:10:26;;;;;;;;;;;25.40;99.90;;;;;;5094771;28;19948;-68
2022/08/14 10:12:52;;;;;;;;;;;25.60;99.90;;;;;;5100623;28;19919;-69
2022/08/14 10:15:19;;;;;;;;;;;25.50;99.90;;;;;;5113052;28;19907;-67
2022/08/14 10:17:45;;;;;;;;;;;25.40;99.90;;;;;;5094211;28;19966;-67
2022/08/14 10:20:12;;;;;;;;;;;25.30;99.90;;;;;;5090253;28;19923;-68
2022/08/14 10:22:38;;;;;;;;;;;25.30;99.90;;;;;;5087926;28;20031;-67
2022/08/14 10:25:14;;;;;;;;;;;25.40;99.90;;;;;;5075262;28;20039;-68
2022/08/14 10:27:40;;;;;;;;;;;25.40;99.90;;;;;;5076383;28;19908;-68
2022/08/14 10:30:13;;;;;;;;;;;25.40;99.90;;;;;;5072760;28;20419;-68
2022/08/14 10:32:43;;;;;;;;;;;25.30;99.90;;;;;;5091953;28;19908;-68
2022/08/14 10:35:10;;;;;;;;;;;25.10;99.90;;;;;;5089858;28;20042;-69
2022/08/14 10:37:37;;;;;;;;;;;25.30;99.90;;;;;;5089753;28;20153;-67
2022/08/14 10:40:03;;;;;;;;;;;25.20;99.90;;;;;;5110411;28;20275;-69
2022/08/14 10:42:36;;;;;;;;;;;25.20;99.90;;;;;;5111378;28;19915;-68
2022/08/14 10:45:02;;;;;;;;;;;25.30;99.90;;;;;;5102326;28;19931;-67
2022/08/14 10:47:35;;;;;;;;;;;25.30;99.90;;;;;;5106182;28;19912;-67
2022/08/14 10:50:01;;;;;;;;;;;25.30;99.90;;;;;;5110406;28;20270;-70
2022/08/14 10:52:31;;;;;;;;;;;25.40;99.90;;;;;;5107742;28;19919;-69
2022/08/14 10:55:18;;;;;;;;;;;25.40;99.90;;;;;;5092614;28;19912;-67
2022/08/14 10:57:51;;;;;;;;;;;25.50;99.90;;;;;;5086157;28;19916;-69
2022/08/14 11:00:18;;;;;;;;;;;25.40;99.90;;;;;;5077578;28;19916;-68
2022/08/14 11:02:44;;;;;;;;;;;25.60;99.90;;;;;;5089731;28;20278;-67
2022/08/14 11:05:17;;;;;;;;;;;25.50;99.90;;;;;;5092653;28;19923;-67
2022/08/14 11:07:54;;;;;;;;;;;25.50;99.90;;;;;;5086599;28;19912;-69
2022/08/14 11:10:25;;;;;;;;;;;25.60;99.90;;;;;;5089485;28;19999;-70
2022/08/14 11:12:54;;;;;;;;;;;25.80;99.90;;;;;;5108494;28;20391;-69
2022/08/14 11:15:21;;;;;;;;;;;26.00;99.90;;;;;;5109244;28;19930;-69
2022/08/14 11:17:48;;;;;;;;;;;26.20;99.90;;;;;;5094729;28;19916;-69
2022/08/14 11:20:15;;;;;;;;;;;26.30;99.90;;;;;;5105799;28;19995;-69
2022/08/14 11:22:41;;;;;;;;;;;26.30;99.90;;;;;;5090862;28;19923;-67
2022/08/14 11:25:09;;;;;;;;;;;26.30;99.90;;;;;;5099868;28;19912;-67
2022/08/14 11:27:36;;;;;;;;;;;26.40;99.90;;;;;;5085155;28;19931;-67
2022/08/14 11:30:05;;;;;;;;;;;26.30;99.90;;;;;;5086809;28;19966;-68
2022/08/14 11:32:30;;;;;;;;;;;26.20;99.90;;;;;;5094382;28;20114;-68
2022/08/14 11:34:57;;;;;;;;;;;26.20;99.90;;;;;;5098846;28;20364;-68
2022/08/14 11:37:23;;;;;;;;;;;26.20;99.90;;;;;;5092625;28;19946;-67
2022/08/14 11:39:48;;;;;;;;;;;26.20;99.90;;;;;;5087373;28;19931;-68
2022/08/14 11:42:25;;;;;;;;;;;26.10;99.90;;;;;;5086161;28;19930;-69
2022/08/14 11:44:51;;;;;;;;;;;25.70;99.90;;;;;;5086246;28;19912;-68
2022/08/14 11:47:20;;;;;;;;;;;25.60;99.90;;;;;;5091661;28;20324;-69
2022/08/14 11:49:46;;;;;;;;;;;25.60;99.90;;;;;;5103964;28;19916;-67
2022/08/14 11:52:16;;;;;;;;;;;25.70;99.90;;;;;;5089785;28;20317;-69
2022/08/14 11:54:42;;;;;;;;;;;25.70;99.90;;;;;;5097216;28;19931;-69
2022/08/14 11:57:14;;;;;;;;;;;25.90;99.90;;;;;;5091306;28;19919;-70
2022/08/14 11:59:41;;;;;;;;;;;26.00;99.90;;;;;;5096768;28;19966;-69
2022/08/14 12:02:10;;;;;;;;;;;26.10;99.90;;;;;;5102751;28;19912;-68
2022/08/14 12:04:47;;;;;;;;;;;26.30;99.90;;;;;;5093096;28;19908;-68
2022/08/14 12:07:12;;;;;;;;;;;26.40;99.90;;;;;;5086539;28;20061;-68
2022/08/14 12:09:38;;;;;;;;;;;26.40;99.90;;;;;;5099266;28;19947;-71
2022/08/14 12:12:12;;;;;;;;;;;26.50;99.90;;;;;;5092904;28;20290;-68
2022/08/14 12:14:48;;;;;;;;;;;26.70;99.90;;;;;;5093798;28;19919;-67
2022/08/14 12:17:14;;;;;;;;;;;26.70;99.90;;;;;;5104433;28;19923;-69
2022/08/14 12:19:43;;;;;;;;;;;26.60;99.90;;;;;;5110487;28;20336;-69
2022/08/14 12:22:08;;;;;;;;;;;26.60;99.90;;;;;;5092963;28;19923;-68
2022/08/14 12:24:34;;;;;;;;;;;26.70;99.90;;;;;;5097657;28;19911;-69
2022/08/14 12:26:59;;;;;;;;;;;26.70;99.90;;;;;;5093058;28;19958;-68
2022/08/14 12:29:25;;;;;;;;;;;26.80;99.90;;;;;;5107372;28;19916;-68
2022/08/14 12:32:06;;;;;;;;;;;26.90;99.90;;;;;;5058443;28;19909;-68
2022/08/14 12:34:36;;;;;;;;;;;27.00;99.90;;;;;;5092257;28;19908;-69
2022/08/14 12:37:04;;;;;;;;;;;26.90;99.90;;;;;;5088723;28;20207;-70
2022/08/14 12:39:30;;;;;;;;;;;27.10;99.90;;;;;;5097568;28;19912;-69
2022/08/14 12:42:00;;;;;;;;;;;27.10;99.90;;;;;;5093007;28;19920;-69
2022/08/14 12:44:30;;;;;;;;;;;27.20;99.90;;;;;;5098479;28;19946;-68
2022/08/14 12:47:04;;;;;;;;;;;27.30;99.90;;;;;;5071725;28;19943;-69
2022/08/14 12:49:30;;;;;;;;;;;26.90;99.90;;;;;;5099008;28;19912;-69
2022/08/14 12:51:57;;;;;;;;;;;26.60;99.90;;;;;;5111078;27;20393;-69
2022/08/14 12:54:22;;;;;;;;;;;26.50;99.90;;;;;;5091933;28;19927;-69
2022/08/14 12:56:48;;;;;;;;;;;26.60;99.90;;;;;;5099925;28;19916;-68
2022/08/14 12:59:15;;;;;;;;;;;26.50;99.90;;;;;;5091178;28;19912;-67
2022/08/14 13:01:41;;;;;;;;;;;26.50;99.90;;;;;;5099493;28;19912;-67
2022/08/14 13:04:07;;;;;;;;;;;26.50;99.90;;;;;;5093763;28;20022;-69
2022/08/14 13:06:37;;;;;;;;;;;26.50;99.90;;;;;;5087558;28;20333;-68
2022/08/14 13:09:03;;;;;;;;;;;26.40;99.90;;;;;;5100691;28;19939;-68
2022/08/14 13:11:34;;;;;;;;;;;26.50;99.90;;;;;;5075322;28;19928;-69
2022/08/14 13:14:00;;;;;;;;;;;26.50;99.90;;;;;;5092467;28;20296;-69
2022/08/14 13:16:27;;;;;;;;;;;26.60;99.90;;;;;;5086858;28;19924;-69
2022/08/14 13:18:58;;;;;;;;;;;26.60;99.90;;;;;;5106741;28;19912;-68
2022/08/14 13:21:25;;;;;;;;;;;26.70;99.90;;;;;;5112775;28;20345;-68
2022/08/14 13:23:51;;;;;;;;;;;26.90;99.90;;;;;;5094810;28;19919;-67
2022/08/14 13:26:17;;;;;;;;;;;26.90;99.90;;;;;;5097374;28;19916;-68
2022/08/14 13:28:43;;;;;;;;;;;26.70;99.90;;;;;;5073065;28;20341;-68
2022/08/14 13:31:11;;;;;;;;;;;26.80;99.90;;;;;;5103166;28;19966;-68
2022/08/14 13:33:38;;;;;;;;;;;26.80;99.90;;;;;;5096829;28;20394;-69
2022/08/14 13:36:03;;;;;;;;;;;27.10;99.90;;;;;;5087619;28;19920;-68
2022/08/14 13:38:29;;;;;;;;;;;27.10;99.90;;;;;;5088324;28;20383;-68
2022/08/14 13:40:55;;;;;;;;;;;27.10;99.90;;;;;;5091901;28;19912;-68
2022/08/14 13:43:23;;;;;;;;;;;27.00;99.90;;;;;;5065400;28;19919;-68
2022/08/14 13:45:49;;;;;;;;;;;26.90;99.90;;;;;;5089701;28;19995;-69
2022/08/14 13:48:15;;;;;;;;;;;26.90;99.90;;;;;;5088297;28;19912;-68
2022/08/14 13:50:41;;;;;;;;;;;26.80;99.90;;;;;;5095118;28;19920;-68
2022/08/14 13:53:08;;;;;;;;;;;26.90;99.90;;;;;;5091800;28;19931;-69
2022/08/14 13:55:34;;;;;;;;;;;27.00;99.90;;;;;;5091908;28;19912;-69
2022/08/14 13:58:01;;;;;;;;;;;27.10;99.90;;;;;;5096027;28;19916;-69
2022/08/14 14:00:27;;;;;;;;;;;27.00;99.90;;;;;;5091130;28;20003;-69
2022/08/14 14:02:55;;;;;;;;;;;27.10;99.90;;;;;;5091618;28;19919;-67
2022/08/14 14:05:20;;;;;;;;;;;27.00;99.90;;;;;;5096547;28;20007;-68
2022/08/14 14:07:51;;;;;;;;;;;26.90;99.90;;;;;;5091232;28;20526;-69
2022/08/14 14:10:20;;;;;;;;;;;26.80;99.90;;;;;;5091660;28;19988;-68
2022/08/14 14:12:47;;;;;;;;;;;26.90;99.90;;;;;;5073378;28;19919;-68
2022/08/14 14:15:15;;;;;;;;;;;26.80;99.90;;;;;;5089289;28;19919;-69
2022/08/14 14:17:41;;;;;;;;;;;26.70;99.90;;;;;;5090485;28;19916;-69
2022/08/14 14:20:10;;;;;;;;;;;26.70;99.90;;;;;;5092016;28;20331;-68
2022/08/14 14:22:38;;;;;;;;;;;26.60;99.90;;;;;;5091429;28;19916;-67
2022/08/14 14:25:04;;;;;;;;;;;26.60;99.90;;;;;;5090618;28;19920;-68
2022/08/14 14:27:32;;;;;;;;;;;26.40;99.90;;;;;;5091455;28;20294;-68
2022/08/14 14:30:00;;;;;;;;;;;26.40;99.90;;;;;;5091417;28;19961;-68
2022/08/14 14:32:27;;;;;;;;;;;26.30;99.90;;;;;;5093537;28;20002;-67
2022/08/14 14:34:53;;;;;;;;;;;26.30;99.90;;;;;;5091361;28;19919;-68